sensor_id;sensor_type;location;lat;lon;timestamp;temperature;humidity
16728;DHT22;8482;54.396;18.590;2024-01-15T15:19:20;1.60;99.90
16728;DHT22;8482;54.396;18.590;2024-01-15T15:21:46;1.60;99.90
16728;DHT22;8482;54.396;18.590;2024-01-15T15:24:13;1.70;99.90
16728;DHT22;8482;54.396;18.590;2024-01-15T15:26:39;1.70;99.90
16728;DHT22;8482;54.396;18.590;2024-01-15T15:29:04;1.70;99.90
16728;DHT22;8482;54.396;18.590;2024-01-15T15:31:30;1.70;99.90
16728;DHT22;8482;54.396;18.590;2024-01-15T15:33:56;1.80;99.90
16728;DHT22;8482;54.396;18.590;2024-01-15T15:36:22;1.80;99.90
16728;DHT22;8482;54.396;18.590;2024-01-15T15:38:49;1.80;99.90
16728;DHT22;8482;54.396;18.590;2024-01-15T15:41:15;1.90;99.90
16728;DHT22;8482;54.396;18.590;2024-01-15T15:43:41;1.90;99.90
16728;DHT22;8482;54.396;18.590;2024-01-15T15:46:06;1.90;99.90
16728;DHT22;8482;54.396;18.590;2024-01-15T15:48:34;1.90;99.90
16728;DHT22;8482;54.396;18.590;2024-01-15T15:51:00;1.90;99.90
16728;DHT22;8482;54.396;18.590;2024-01-15T15:53:28;2.00;99.90
16728;DHT22;8482;54.396;18.590;2024-01-15T15:55:53;2.00;99.90
16728;DHT22;8482;54.396;18.590;2024-01-15T15:58:19;2.00;99.90
16728;DHT22;8482;54.396;18.590;2024-01-15T16:00:45;2.00;99.90
16728;DHT22;8482;54.396;18.590;2024-01-15T16:03:11;2.00;99.90
16728;DHT22;8482;54.396;18.590;2024-01-15T16:05:37;2.10;99.90
16728;DHT22;8482;54.396;18.590;2024-01-15T16:08:03;2.00;99.90
16728;DHT22;8482;54.396;18.590;2024-01-15T16:10:29;2.00;99.90
16728;DHT22;8482;54.396;18.590;2024-01-15T16:12:54;2.00;99.90
16728;DHT22;8482;54.396;18.590;2024-01-15T16:15:22;2.00;99.90
16728;DHT22;8482;54.396;18.590;2024-01-15T16:17:51;2.00;99.90
16728;DHT22;8482;54.396;18.590;2024-01-15T16:20:18;2.00;99.90
16728;DHT22;8482;54.396;18.590;2024-01-15T16:22:45;2.00;99.90
16728;DHT22;8482;54.396;18.590;2024-01-15T16:25:12;2.00;99.90
16728;DHT22;8482;54.396;18.590;2024-01-15T16:27:38;2.00;99.90
16728;DHT22;8482;54.396;18.590;2024-01-15T16:30:08;2.00;99.90
16728;DHT22;8482;54.396;18.590;2024-01-15T16:32:35;2.00;99.90
16728;DHT22;8482;54.396;18.590;2024-01-15T16:35:01;2.00;99.90
16728;DHT22;8482;54.396;18.590;2024-01-15T16:37:28;2.00;99.90
16728;DHT22;8482;54.396;18.590;2024-01-15T16:39:54;2.00;99.90
16728;DHT22;8482;54.396;18.590;2024-01-15T16:42:20;1.90;99.90
16728;DHT22;8482;54.396;18.590;2024-01-15T16:44:46;1.90;99.90
16728;DHT22;8482;54.396;18.590;2024-01-15T16:47:12;1.90;99.90
16728;DHT22;8482;54.396;18.590;2024-01-15T16:49:38;1.90;99.90
16728;DHT22;8482;54.396;18.590;2024-01-15T16:52:04;1.90;99.90
16728;DHT22;8482;54.396;18.590;2024-01-15T16:54:32;2.00;99.90
16728;DHT22;8482;54.396;18.590;2024-01-15T16:56:58;1.90;99.90
16728;DHT22;8482;54.396;18.590;2024-01-15T16:59:25;1.90;99.90
16728;DHT22;8482;54.396;18.590;2024-01-15T17:01:51;1.90;99.90
16728;DHT22;8482;54.396;18.590;2024-01-15T17:04:17;1.90;99.90
16728;DHT22;8482;54.396;18.590;2024-01-15T17:06:43;1.90;99.90
16728;DHT22;8482;54.396;18.590;2024-01-15T17:09:08;1.90;99.90
16728;DHT22;8482;54.396;18.590;2024-01-15T17:11:34;1.80;99.90
16728;DHT22;8482;54.396;18.590;2024-01-15T17:14:00;1.80;99.90
16728;DHT22;8482;54.396;18.590;2024-01-15T17:16:26;1.80;99.90
16728;DHT22;8482;54.396;18.590;2024-01-15T17:18:52;1.80;99.90
16728;DHT22;8482;54.396;18.590;2024-01-15T17:21:17;1.80;99.90
16728;DHT22;8482;54.396;18.590;2024-01-15T17:23:43;1.70;99.90
16728;DHT22;8482;54.396;18.590;2024-01-15T17:26:09;1.70;99.90
16728;DHT22;8482;54.396;18.590;2024-01-15T17:28:36;1.70;99.90
16728;DHT22;8482;54.396;18.590;2024-01-15T17:31:02;1.60;99.90
16728;DHT22;8482;54.396;18.590;2024-01-15T17:33:29;1.60;99.90
16728;DHT22;8482;54.396;18.590;2024-01-15T17:35:56;1.60;99.90
16728;DHT22;8482;54.396;18.590;2024-01-15T17:38:23;1.60;99.90
16728;DHT22;8482;54.396;18.590;2024-01-15T17:40:50;1.60;99.90
16728;DHT22;8482;54.396;18.590;2024-01-15T17:43:16;1.60;99.90
16728;DHT22;8482;54.396;18.590;2024-01-15T17:45:42;1.60;99.90
16728;DHT22;8482;54.396;18.590;2024-01-15T17:48:08;1.60;99.90
16728;DHT22;8482;54.396;18.590;2024-01-15T17:50:34;1.60;99.90
16728;DHT22;8482;54.396;18.590;2024-01-15T17:53:02;1.60;99.90
16728;DHT22;8482;54.396;18.590;2024-01-15T17:55:28;1.60;99.90
16728;DHT22;8482;54.396;18.590;2024-01-15T17:57:53;1.60;99.90
16728;DHT22;8482;54.396;18.590;2024-01-15T18:00:20;1.60;99.90
16728;DHT22;8482;54.396;18.590;2024-01-15T18:02:46;1.60;99.90
16728;DHT22;8482;54.396;18.590;2024-01-15T18:05:13;1.60;99.90
16728;DHT22;8482;54.396;18.590;2024-01-15T18:07:39;1.50;99.90
16728;DHT22;8482;54.396;18.590;2024-01-15T18:10:06;1.50;99.90
16728;DHT22;8482;54.396;18.590;2024-01-15T18:12:32;1.50;99.90
16728;DHT22;8482;54.396;18.590;2024-01-15T18:14:59;1.50;99.90
16728;DHT22;8482;54.396;18.590;2024-01-15T18:17:25;1.50;99.90
16728;DHT22;8482;54.396;18.590;2024-01-15T18:19:52;1.50;99.90
16728;DHT22;8482;54.396;18.590;2024-01-15T18:22:19;1.40;99.90
16728;DHT22;8482;54.396;18.590;2024-01-15T18:24:45;1.40;99.90
16728;DHT22;8482;54.396;18.590;2024-01-15T18:27:11;1.40;99.90
16728;DHT22;8482;54.396;18.590;2024-01-15T18:29:37;1.30;99.90
16728;DHT22;8482;54.396;18.590;2024-01-15T18:32:03;1.30;99.90
16728;DHT22;8482;54.396;18.590;2024-01-15T18:34:30;1.30;99.90
16728;DHT22;8482;54.396;18.590;2024-01-15T18:36:56;1.20;99.90
16728;DHT22;8482;54.396;18.590;2024-01-15T18:39:22;1.20;99.90
16728;DHT22;8482;54.396;18.590;2024-01-15T18:41:47;1.20;99.90
16728;DHT22;8482;54.396;18.590;2024-01-15T18:44:13;1.10;99.90
16728;DHT22;8482;54.396;18.590;2024-01-15T18:46:40;1.10;99.90
16728;DHT22;8482;54.396;18.590;2024-01-15T18:49:09;1.10;99.90
16728;DHT22;8482;54.396;18.590;2024-01-15T18:51:36;1.10;99.90
16728;DHT22;8482;54.396;18.590;2024-01-15T18:54:01;1.00;99.90
16728;DHT22;8482;54.396;18.590;2024-01-15T18:56:27;1.00;99.90
16728;DHT22;8482;54.396;18.590;2024-01-15T18:58:53;1.00;99.90
16728;DHT22;8482;54.396;18.590;2024-01-15T19:01:29;1.00;99.90
16728;DHT22;8482;54.396;18.590;2024-01-15T19:03:56;0.90;99.90
16728;DHT22;8482;54.396;18.590;2024-01-15T19:06:23;0.90;99.90
16728;DHT22;8482;54.396;18.590;2024-01-15T19:08:50;0.80;99.90
16728;DHT22;8482;54.396;18.590;2024-01-15T19:11:17;0.80;99.90
16728;DHT22;8482;54.396;18.590;2024-01-15T19:13:43;0.80;99.90
16728;DHT22;8482;54.396;18.590;2024-01-15T19:16:10;0.80;99.90
16728;DHT22;8482;54.396;18.590;2024-01-15T19:18:38;0.70;99.90
16728;DHT22;8482;54.396;18.590;2024-01-15T19:21:04;0.70;99.90
16728;DHT22;8482;54.396;18.590;2024-01-15T19:23:30;0.70;99.90
16728;DHT22;8482;54.396;18.590;2024-01-15T19:25:56;0.70;99.90
16728;DHT22;8482;54.396;18.590;2024-01-15T19:28:23;0.70;99.90
16728;DHT22;8482;54.396;18.590;2024-01-15T19:30:49;0.70;99.90
16728;DHT22;8482;54.396;18.590;2024-01-15T19:33:19;0.60;99.90
16728;DHT22;8482;54.396;18.590;2024-01-15T19:35:45;0.60;99.90
16728;DHT22;8482;54.396;18.590;2024-01-15T19:38:12;0.60;99.90
16728;DHT22;8482;54.396;18.590;2024-01-15T19:40:38;0.60;99.90
16728;DHT22;8482;54.396;18.590;2024-01-15T19:43:04;0.60;99.90
16728;DHT22;8482;54.396;18.590;2024-01-15T19:45:30;0.50;99.90
16728;DHT22;8482;54.396;18.590;2024-01-15T19:47:56;0.50;99.90
16728;DHT22;8482;54.396;18.590;2024-01-15T19:50:22;0.40;99.90
16728;DHT22;8482;54.396;18.590;2024-01-15T19:52:48;0.40;99.90
16728;DHT22;8482;54.396;18.590;2024-01-15T19:55:15;0.40;99.90
16728;DHT22;8482;54.396;18.590;2024-01-15T19:57:41;0.40;99.90
16728;DHT22;8482;54.396;18.590;2024-01-15T20:00:08;0.40;99.90
16728;DHT22;8482;54.396;18.590;2024-01-15T20:02:34;0.30;99.90
16728;DHT22;8482;54.396;18.590;2024-01-15T20:05:00;0.20;99.90
16728;DHT22;8482;54.396;18.590;2024-01-15T20:07:26;0.20;99.90
16728;DHT22;8482;54.396;18.590;2024-01-15T20:09:53;0.20;99.90
16728;DHT22;8482;54.396;18.590;2024-01-15T20:12:19;0.20;99.90
16728;DHT22;8482;54.396;18.590;2024-01-15T20:14:47;0.20;99.90
16728;DHT22;8482;54.396;18.590;2024-01-15T20:17:13;0.10;99.90
16728;DHT22;8482;54.396;18.590;2024-01-15T20:19:39;0.10;99.90
16728;DHT22;8482;54.396;18.590;2024-01-15T20:22:05;0.10;99.90
16728;DHT22;8482;54.396;18.590;2024-01-15T20:24:31;0.10;99.90
16728;DHT22;8482;54.396;18.590;2024-01-15T20:26:57;0.00;99.90
16728;DHT22;8482;54.396;18.590;2024-01-15T20:29:23;0.00;99.90
16728;DHT22;8482;54.396;18.590;2024-01-15T20:31:50;0.00;99.90
16728;DHT22;8482;54.396;18.590;2024-01-15T20:34:16;-0.10;99.90
16728;DHT22;8482;54.396;18.590;2024-01-15T20:36:41;-0.10;99.90
16728;DHT22;8482;54.396;18.590;2024-01-15T20:39:08;-0.10;99.90
16728;DHT22;8482;54.396;18.590;2024-01-15T20:41:35;-0.10;99.90
16728;DHT22;8482;54.396;18.590;2024-01-15T20:44:01;-0.10;99.90
16728;DHT22;8482;54.396;18.590;2024-01-15T20:46:27;-0.20;99.90
16728;DHT22;8482;54.396;18.590;2024-01-15T20:48:53;-0.20;99.90
16728;DHT22;8482;54.396;18.590;2024-01-15T20:51:19;-0.20;99.90
16728;DHT22;8482;54.396;18.590;2024-01-15T20:53:45;-0.20;99.90
16728;DHT22;8482;54.396;18.590;2024-01-15T20:56:11;-0.20;99.90
16728;DHT22;8482;54.396;18.590;2024-01-15T20:58:37;-0.20;99.90
16728;DHT22;8482;54.396;18.590;2024-01-15T21:01:07;-0.20;99.90
16728;DHT22;8482;54.396;18.590;2024-01-15T21:03:34;-0.20;99.90
16728;DHT22;8482;54.396;18.590;2024-01-15T21:06:00;-0.30;99.90
16728;DHT22;8482;54.396;18.590;2024-01-15T21:08:26;-0.20;99.90
16728;DHT22;8482;54.396;18.590;2024-01-15T21:10:52;-0.20;99.90
16728;DHT22;8482;54.396;18.590;2024-01-15T21:13:18;-0.20;99.90
16728;DHT22;8482;54.396;18.590;2024-01-15T21:15:44;-0.20;99.90
16728;DHT22;8482;54.396;18.590;2024-01-15T21:18:10;-0.20;99.90
16728;DHT22;8482;54.396;18.590;2024-01-15T21:20:36;-0.20;99.90
16728;DHT22;8482;54.396;18.590;2024-01-15T21:23:02;-0.20;99.90
16728;DHT22;8482;54.396;18.590;2024-01-15T21:25:28;-0.20;99.90
16728;DHT22;8482;54.396;18.590;2024-01-15T21:27:54;-0.20;99.90
16728;DHT22;8482;54.396;18.590;2024-01-15T21:30:21;-0.20;99.90
16728;DHT22;8482;54.396;18.590;2024-01-15T21:32:47;-0.20;99.90
16728;DHT22;8482;54.396;18.590;2024-01-15T21:35:14;-0.30;99.90
16728;DHT22;8482;54.396;18.590;2024-01-15T21:37:40;-0.30;99.90
16728;DHT22;8482;54.396;18.590;2024-01-15T21:40:07;-0.30;99.90
16728;DHT22;8482;54.396;18.590;2024-01-15T21:42:38;-0.40;99.90
16728;DHT22;8482;54.396;18.590;2024-01-15T21:45:07;-0.40;99.90
16728;DHT22;8482;54.396;18.590;2024-01-15T21:47:36;-0.40;99.90
16728;DHT22;8482;54.396;18.590;2024-01-15T21:50:07;-0.40;99.90
16728;DHT22;8482;54.396;18.590;2024-01-15T21:52:37;-0.40;99.90
16728;DHT22;8482;54.396;18.590;2024-01-15T21:55:05;-0.40;99.90
16728;DHT22;8482;54.396;18.590;2024-01-15T21:57:31;-0.50;99.90
16728;DHT22;8482;54.396;18.590;2024-01-15T21:59:57;-0.50;99.90
16728;DHT22;8482;54.396;18.590;2024-01-15T22:02:25;-0.50;99.90
16728;DHT22;8482;54.396;18.590;2024-01-15T22:04:52;-0.50;99.90
16728;DHT22;8482;54.396;18.590;2024-01-15T22:07:19;-0.50;99.90
16728;DHT22;8482;54.396;18.590;2024-01-15T22:09:45;-0.50;99.90
16728;DHT22;8482;54.396;18.590;2024-01-15T22:12:11;-0.50;99.90
16728;DHT22;8482;54.396;18.590;2024-01-15T22:14:36;-0.60;99.90
16728;DHT22;8482;54.396;18.590;2024-01-15T22:17:02;-0.50;99.90
16728;DHT22;8482;54.396;18.590;2024-01-15T22:19:28;-0.50;99.90
16728;DHT22;8482;54.396;18.590;2024-01-15T22:21:54;-0.50;99.90
16728;DHT22;8482;54.396;18.590;2024-01-15T22:24:20;-0.50;99.90
16728;DHT22;8482;54.396;18.590;2024-01-15T22:26:46;-0.50;99.90
16728;DHT22;8482;54.396;18.590;2024-01-15T22:29:11;-0.50;99.90
16728;DHT22;8482;54.396;18.590;2024-01-15T22:31:37;-0.50;99.90
16728;DHT22;8482;54.396;18.590;2024-01-15T22:34:03;-0.50;99.90
16728;DHT22;8482;54.396;18.590;2024-01-15T22:36:29;-0.60;99.90
16728;DHT22;8482;54.396;18.590;2024-01-15T22:38:56;-0.60;99.90
16728;DHT22;8482;54.396;18.590;2024-01-15T22:41:22;-0.60;99.90
16728;DHT22;8482;54.396;18.590;2024-01-15T22:43:48;-0.60;99.90
16728;DHT22;8482;54.396;18.590;2024-01-15T22:46:14;-0.60;99.90
16728;DHT22;8482;54.396;18.590;2024-01-15T22:48:39;-0.60;99.90
16728;DHT22;8482;54.396;18.590;2024-01-15T22:51:06;-0.60;99.90
16728;DHT22;8482;54.396;18.590;2024-01-15T22:53:32;-0.60;99.90
16728;DHT22;8482;54.396;18.590;2024-01-15T22:56:01;-0.60;99.90
16728;DHT22;8482;54.396;18.590;2024-01-15T22:58:27;-0.60;99.90
16728;DHT22;8482;54.396;18.590;2024-01-15T23:00:53;-0.60;99.90
16728;DHT22;8482;54.396;18.590;2024-01-15T23:03:19;-0.60;99.90
16728;DHT22;8482;54.396;18.590;2024-01-15T23:05:45;-0.60;99.90
16728;DHT22;8482;54.396;18.590;2024-01-15T23:08:10;-0.60;99.90
16728;DHT22;8482;54.396;18.590;2024-01-15T23:10:36;-0.60;99.90
16728;DHT22;8482;54.396;18.590;2024-01-15T23:13:02;-0.50;99.90
16728;DHT22;8482;54.396;18.590;2024-01-15T23:15:29;-0.50;99.90
